sensor_id;sensor_type;location;lat;lon;timestamp;P1;durP1;ratioP1;P2;durP2;ratioP2
16878;SDS011;8556;52.218;9.884;2023-02-01T00:00:25;14.57;;;3.00;;
16878;SDS011;8556;52.218;9.884;2023-02-01T00:02:52;17.87;;;3.30;;
16878;SDS011;8556;52.218;9.884;2023-02-01T00:05:19;13.57;;;3.27;;
16878;SDS011;8556;52.218;9.884;2023-02-01T00:07:46;11.10;;;2.87;;
16878;SDS011;8556;52.218;9.884;2023-02-01T00:10:14;17.73;;;3.43;;
16878;SDS011;8556;52.218;9.884;2023-02-01T00:12:42;11.47;;;2.90;;
16878;SDS011;8556;52.218;9.884;2023-02-01T00:15:10;10.63;;;2.63;;
16878;SDS011;8556;52.218;9.884;2023-02-01T00:17:37;15.80;;;4.53;;
16878;SDS011;8556;52.218;9.884;2023-02-01T00:20:04;13.47;;;2.50;;
16878;SDS011;8556;52.218;9.884;2023-02-01T00:22:32;18.37;;;2.70;;
16878;SDS011;8556;52.218;9.884;2023-02-01T00:24:59;21.03;;;4.13;;
16878;SDS011;8556;52.218;9.884;2023-02-01T00:27:26;11.93;;;2.73;;
16878;SDS011;8556;52.218;9.884;2023-02-01T00:29:55;17.67;;;3.77;;
16878;SDS011;8556;52.218;9.884;2023-02-01T00:32:22;13.70;;;3.10;;
16878;SDS011;8556;52.218;9.884;2023-02-01T00:34:49;16.23;;;2.93;;
16878;SDS011;8556;52.218;9.884;2023-02-01T00:37:15;14.93;;;3.00;;
16878;SDS011;8556;52.218;9.884;2023-02-01T00:39:42;18.47;;;3.67;;
16878;SDS011;8556;52.218;9.884;2023-02-01T00:42:09;20.77;;;4.53;;
16878;SDS011;8556;52.218;9.884;2023-02-01T00:44:36;11.33;;;3.17;;
16878;SDS011;8556;52.218;9.884;2023-02-01T00:47:05;16.87;;;3.70;;
16878;SDS011;8556;52.218;9.884;2023-02-01T00:49:32;12.27;;;2.73;;
16878;SDS011;8556;52.218;9.884;2023-02-01T00:51:59;13.60;;;2.87;;
16878;SDS011;8556;52.218;9.884;2023-02-01T00:54:26;15.47;;;2.80;;
16878;SDS011;8556;52.218;9.884;2023-02-01T00:56:53;19.87;;;3.43;;
16878;SDS011;8556;52.218;9.884;2023-02-01T00:59:20;10.67;;;3.13;;
16878;SDS011;8556;52.218;9.884;2023-02-01T01:01:47;11.27;;;2.73;;
16878;SDS011;8556;52.218;9.884;2023-02-01T01:04:15;18.73;;;3.03;;
16878;SDS011;8556;52.218;9.884;2023-02-01T01:06:42;15.77;;;3.23;;
16878;SDS011;8556;52.218;9.884;2023-02-01T01:09:09;18.53;;;3.07;;
16878;SDS011;8556;52.218;9.884;2023-02-01T01:11:36;23.33;;;2.97;;
16878;SDS011;8556;52.218;9.884;2023-02-01T01:14:05;11.57;;;3.30;;
16878;SDS011;8556;52.218;9.884;2023-02-01T01:16:33;13.27;;;2.57;;
16878;SDS011;8556;52.218;9.884;2023-02-01T01:19:00;20.97;;;3.20;;
16878;SDS011;8556;52.218;9.884;2023-02-01T01:21:29;17.40;;;2.87;;
16878;SDS011;8556;52.218;9.884;2023-02-01T01:23:56;15.93;;;2.73;;
16878;SDS011;8556;52.218;9.884;2023-02-01T01:26:24;12.90;;;2.47;;
16878;SDS011;8556;52.218;9.884;2023-02-01T01:28:51;18.17;;;3.53;;
16878;SDS011;8556;52.218;9.884;2023-02-01T01:31:20;13.83;;;2.73;;
16878;SDS011;8556;52.218;9.884;2023-02-01T01:33:48;17.60;;;3.07;;
16878;SDS011;8556;52.218;9.884;2023-02-01T01:36:16;12.33;;;2.57;;
16878;SDS011;8556;52.218;9.884;2023-02-01T01:38:44;14.07;;;3.47;;
16878;SDS011;8556;52.218;9.884;2023-02-01T01:41:12;18.20;;;3.20;;
16878;SDS011;8556;52.218;9.884;2023-02-01T01:43:47;12.77;;;3.00;;
16878;SDS011;8556;52.218;9.884;2023-02-01T01:46:20;12.77;;;2.63;;
16878;SDS011;8556;52.218;9.884;2023-02-01T01:48:48;11.63;;;3.70;;
16878;SDS011;8556;52.218;9.884;2023-02-01T01:51:19;14.03;;;2.70;;
16878;SDS011;8556;52.218;9.884;2023-02-01T01:53:53;12.03;;;3.07;;
16878;SDS011;8556;52.218;9.884;2023-02-01T01:56:26;14.97;;;3.07;;
16878;SDS011;8556;52.218;9.884;2023-02-01T01:58:54;18.80;;;3.33;;
16878;SDS011;8556;52.218;9.884;2023-02-01T02:01:21;14.73;;;3.00;;
16878;SDS011;8556;52.218;9.884;2023-02-01T02:03:49;14.33;;;3.20;;
16878;SDS011;8556;52.218;9.884;2023-02-01T02:06:20;17.50;;;3.13;;
16878;SDS011;8556;52.218;9.884;2023-02-01T02:08:57;11.87;;;2.53;;
16878;SDS011;8556;52.218;9.884;2023-02-01T02:11:24;16.33;;;3.33;;
16878;SDS011;8556;52.218;9.884;2023-02-01T02:13:52;17.20;;;3.20;;
16878;SDS011;8556;52.218;9.884;2023-02-01T02:16:27;10.80;;;3.17;;
16878;SDS011;8556;52.218;9.884;2023-02-01T02:19:30;12.53;;;2.63;;
16878;SDS011;8556;52.218;9.884;2023-02-01T02:22:28;19.77;;;2.93;;
16878;SDS011;8556;52.218;9.884;2023-02-01T02:28:31;16.03;;;3.23;;
16878;SDS011;8556;52.218;9.884;2023-02-01T02:31:34;13.67;;;3.07;;
16878;SDS011;8556;52.218;9.884;2023-02-01T02:34:15;17.87;;;2.93;;
16878;SDS011;8556;52.218;9.884;2023-02-01T02:36:51;18.23;;;3.60;;
16878;SDS011;8556;52.218;9.884;2023-02-01T02:39:28;12.97;;;3.47;;
16878;SDS011;8556;52.218;9.884;2023-02-01T02:42:07;15.10;;;3.67;;
16878;SDS011;8556;52.218;9.884;2023-02-01T02:44:57;17.37;;;3.40;;
16878;SDS011;8556;52.218;9.884;2023-02-01T02:47:49;19.73;;;3.00;;
16878;SDS011;8556;52.218;9.884;2023-02-01T02:50:23;14.50;;;3.10;;
16878;SDS011;8556;52.218;9.884;2023-02-01T02:53:21;23.27;;;4.67;;
16878;SDS011;8556;52.218;9.884;2023-02-01T02:56:11;15.13;;;3.43;;
16878;SDS011;8556;52.218;9.884;2023-02-01T02:58:58;17.63;;;3.83;;
16878;SDS011;8556;52.218;9.884;2023-02-01T03:01:44;15.47;;;3.43;;
16878;SDS011;8556;52.218;9.884;2023-02-01T03:04:28;11.13;;;3.23;;
16878;SDS011;8556;52.218;9.884;2023-02-01T03:06:57;11.53;;;2.77;;
16878;SDS011;8556;52.218;9.884;2023-02-01T03:09:26;12.70;;;3.00;;
16878;SDS011;8556;52.218;9.884;2023-02-01T03:11:58;13.47;;;3.10;;
16878;SDS011;8556;52.218;9.884;2023-02-01T03:14:46;14.90;;;3.57;;
16878;SDS011;8556;52.218;9.884;2023-02-01T03:17:17;13.40;;;3.33;;
16878;SDS011;8556;52.218;9.884;2023-02-01T03:19:48;16.67;;;3.43;;
16878;SDS011;8556;52.218;9.884;2023-02-01T03:22:20;12.87;;;3.63;;
16878;SDS011;8556;52.218;9.884;2023-02-01T03:24:50;19.30;;;4.93;;
16878;SDS011;8556;52.218;9.884;2023-02-01T03:27:21;16.47;;;3.43;;
16878;SDS011;8556;52.218;9.884;2023-02-01T03:29:51;16.53;;;3.30;;
16878;SDS011;8556;52.218;9.884;2023-02-01T03:32:26;17.57;;;3.73;;
16878;SDS011;8556;52.218;9.884;2023-02-01T03:34:53;12.90;;;3.07;;
16878;SDS011;8556;52.218;9.884;2023-02-01T03:37:23;15.67;;;3.73;;
16878;SDS011;8556;52.218;9.884;2023-02-01T03:39:53;18.00;;;4.70;;
16878;SDS011;8556;52.218;9.884;2023-02-01T03:42:27;13.43;;;3.40;;
16878;SDS011;8556;52.218;9.884;2023-02-01T03:45:00;13.50;;;4.07;;
16878;SDS011;8556;52.218;9.884;2023-02-01T03:47:33;20.37;;;4.20;;
16878;SDS011;8556;52.218;9.884;2023-02-01T03:50:05;19.27;;;3.83;;
16878;SDS011;8556;52.218;9.884;2023-02-01T03:52:36;11.23;;;3.60;;
16878;SDS011;8556;52.218;9.884;2023-02-01T03:55:07;15.17;;;4.43;;
16878;SDS011;8556;52.218;9.884;2023-02-01T03:57:35;19.87;;;4.90;;
16878;SDS011;8556;52.218;9.884;2023-02-01T04:00:07;13.00;;;3.53;;
16878;SDS011;8556;52.218;9.884;2023-02-01T04:02:41;13.77;;;3.77;;
16878;SDS011;8556;52.218;9.884;2023-02-01T04:05:08;18.20;;;4.37;;
16878;SDS011;8556;52.218;9.884;2023-02-01T04:07:36;15.23;;;3.70;;
16878;SDS011;8556;52.218;9.884;2023-02-01T04:10:04;14.63;;;3.73;;
16878;SDS011;8556;52.218;9.884;2023-02-01T04:12:31;11.60;;;3.50;;
16878;SDS011;8556;52.218;9.884;2023-02-01T04:14:58;13.77;;;4.07;;
16878;SDS011;8556;52.218;9.884;2023-02-01T04:17:25;15.03;;;4.23;;
16878;SDS011;8556;52.218;9.884;2023-02-01T04:19:52;15.10;;;3.67;;
16878;SDS011;8556;52.218;9.884;2023-02-01T04:22:19;12.57;;;3.97;;
16878;SDS011;8556;52.218;9.884;2023-02-01T04:24:48;17.80;;;4.00;;
16878;SDS011;8556;52.218;9.884;2023-02-01T04:27:15;16.37;;;4.27;;
16878;SDS011;8556;52.218;9.884;2023-02-01T04:29:42;15.20;;;4.03;;
16878;SDS011;8556;52.218;9.884;2023-02-01T04:32:10;17.50;;;4.60;;
16878;SDS011;8556;52.218;9.884;2023-02-01T04:34:37;19.40;;;4.13;;
16878;SDS011;8556;52.218;9.884;2023-02-01T04:37:04;14.80;;;4.10;;
16878;SDS011;8556;52.218;9.884;2023-02-01T04:39:31;14.53;;;4.03;;
16878;SDS011;8556;52.218;9.884;2023-02-01T04:41:59;16.63;;;3.90;;
16878;SDS011;8556;52.218;9.884;2023-02-01T04:44:26;16.87;;;4.00;;
16878;SDS011;8556;52.218;9.884;2023-02-01T04:46:53;15.63;;;4.40;;
16878;SDS011;8556;52.218;9.884;2023-02-01T04:49:20;18.07;;;4.13;;
16878;SDS011;8556;52.218;9.884;2023-02-01T04:51:47;15.53;;;4.57;;
16878;SDS011;8556;52.218;9.884;2023-02-01T04:54:14;15.43;;;3.63;;
16878;SDS011;8556;52.218;9.884;2023-02-01T04:56:41;14.30;;;3.90;;
16878;SDS011;8556;52.218;9.884;2023-02-01T04:59:10;16.37;;;4.47;;
16878;SDS011;8556;52.218;9.884;2023-02-01T05:01:38;16.83;;;3.77;;
16878;SDS011;8556;52.218;9.884;2023-02-01T05:04:05;18.57;;;4.00;;
16878;SDS011;8556;52.218;9.884;2023-02-01T05:06:32;15.80;;;4.13;;
16878;SDS011;8556;52.218;9.884;2023-02-01T05:08:59;13.67;;;3.83;;
16878;SDS011;8556;52.218;9.884;2023-02-01T05:11:26;17.77;;;5.43;;
16878;SDS011;8556;52.218;9.884;2023-02-01T05:14:11;14.57;;;3.63;;
16878;SDS011;8556;52.218;9.884;2023-02-01T05:16:38;15.53;;;4.20;;
16878;SDS011;8556;52.218;9.884;2023-02-01T05:19:05;16.93;;;4.80;;
16878;SDS011;8556;52.218;9.884;2023-02-01T05:21:32;14.03;;;4.30;;
16878;SDS011;8556;52.218;9.884;2023-02-01T05:23:59;18.23;;;3.90;;
16878;SDS011;8556;52.218;9.884;2023-02-01T05:26:35;14.80;;;3.97;;
16878;SDS011;8556;52.218;9.884;2023-02-01T05:29:02;16.57;;;4.10;;
16878;SDS011;8556;52.218;9.884;2023-02-01T05:31:31;13.63;;;3.40;;
16878;SDS011;8556;52.218;9.884;2023-02-01T05:33:58;11.67;;;3.90;;
16878;SDS011;8556;52.218;9.884;2023-02-01T05:36:25;13.03;;;4.10;;
16878;SDS011;8556;52.218;9.884;2023-02-01T05:38:52;12.93;;;3.27;;
16878;SDS011;8556;52.218;9.884;2023-02-01T05:41:19;17.60;;;4.10;;
16878;SDS011;8556;52.218;9.884;2023-02-01T05:43:46;14.40;;;4.40;;
16878;SDS011;8556;52.218;9.884;2023-02-01T05:46:13;16.60;;;4.47;;
16878;SDS011;8556;52.218;9.884;2023-02-01T05:48:41;13.43;;;3.87;;
16878;SDS011;8556;52.218;9.884;2023-02-01T05:51:08;17.20;;;3.57;;
16878;SDS011;8556;52.218;9.884;2023-02-01T05:53:36;13.20;;;2.73;;
16878;SDS011;8556;52.218;9.884;2023-02-01T05:56:03;9.73;;;2.90;;
16878;SDS011;8556;52.218;9.884;2023-02-01T05:58:31;13.27;;;4.50;;
16878;SDS011;8556;52.218;9.884;2023-02-01T06:00:58;10.20;;;3.20;;
16878;SDS011;8556;52.218;9.884;2023-02-01T06:03:26;12.90;;;3.47;;
16878;SDS011;8556;52.218;9.884;2023-02-01T06:05:54;12.10;;;3.73;;
16878;SDS011;8556;52.218;9.884;2023-02-01T06:08:21;12.70;;;3.43;;
16878;SDS011;8556;52.218;9.884;2023-02-01T06:10:50;14.07;;;3.30;;
16878;SDS011;8556;52.218;9.884;2023-02-01T06:13:23;10.80;;;3.40;;
16878;SDS011;8556;52.218;9.884;2023-02-01T06:15:50;12.40;;;3.40;;
16878;SDS011;8556;52.218;9.884;2023-02-01T06:18:17;12.40;;;3.17;;
16878;SDS011;8556;52.218;9.884;2023-02-01T06:20:44;10.20;;;3.10;;
16878;SDS011;8556;52.218;9.884;2023-02-01T06:23:12;11.10;;;3.40;;
16878;SDS011;8556;52.218;9.884;2023-02-01T06:25:39;14.20;;;3.63;;
16878;SDS011;8556;52.218;9.884;2023-02-01T06:28:06;10.83;;;2.67;;
16878;SDS011;8556;52.218;9.884;2023-02-01T06:30:33;11.17;;;3.17;;
16878;SDS011;8556;52.218;9.884;2023-02-01T06:33:00;9.83;;;3.23;;
16878;SDS011;8556;52.218;9.884;2023-02-01T06:35:27;11.17;;;4.40;;
16878;SDS011;8556;52.218;9.884;2023-02-01T06:37:54;7.93;;;3.00;;
16878;SDS011;8556;52.218;9.884;2023-02-01T06:40:24;12.37;;;3.40;;
16878;SDS011;8556;52.218;9.884;2023-02-01T06:42:51;13.70;;;3.10;;
16878;SDS011;8556;52.218;9.884;2023-02-01T06:45:18;7.13;;;3.03;;
16878;SDS011;8556;52.218;9.884;2023-02-01T06:47:45;8.17;;;2.60;;
16878;SDS011;8556;52.218;9.884;2023-02-01T06:50:12;12.80;;;3.00;;
16878;SDS011;8556;52.218;9.884;2023-02-01T06:52:39;11.33;;;3.10;;
16878;SDS011;8556;52.218;9.884;2023-02-01T06:55:06;12.47;;;2.67;;
16878;SDS011;8556;52.218;9.884;2023-02-01T06:57:35;7.20;;;2.67;;
16878;SDS011;8556;52.218;9.884;2023-02-01T07:00:02;11.03;;;3.40;;
16878;SDS011;8556;52.218;9.884;2023-02-01T07:02:30;16.27;;;3.20;;
16878;SDS011;8556;52.218;9.884;2023-02-01T07:04:57;13.50;;;3.53;;
16878;SDS011;8556;52.218;9.884;2023-02-01T07:07:24;8.30;;;3.30;;
16878;SDS011;8556;52.218;9.884;2023-02-01T07:09:51;18.43;;;2.97;;
16878;SDS011;8556;52.218;9.884;2023-02-01T07:12:18;12.50;;;3.60;;
16878;SDS011;8556;52.218;9.884;2023-02-01T07:14:47;11.60;;;3.10;;
16878;SDS011;8556;52.218;9.884;2023-02-01T07:17:14;13.63;;;3.60;;
16878;SDS011;8556;52.218;9.884;2023-02-01T07:19:41;10.07;;;3.37;;
16878;SDS011;8556;52.218;9.884;2023-02-01T07:22:07;14.03;;;3.07;;
16878;SDS011;8556;52.218;9.884;2023-02-01T07:24:34;17.13;;;3.20;;
16878;SDS011;8556;52.218;9.884;2023-02-01T07:27:01;15.77;;;3.17;;
16878;SDS011;8556;52.218;9.884;2023-02-01T07:29:28;12.20;;;3.10;;
16878;SDS011;8556;52.218;9.884;2023-02-01T07:31:57;14.23;;;3.30;;
16878;SDS011;8556;52.218;9.884;2023-02-01T07:34:25;14.47;;;2.87;;
16878;SDS011;8556;52.218;9.884;2023-02-01T07:36:52;6.63;;;2.90;;
16878;SDS011;8556;52.218;9.884;2023-02-01T07:39:19;11.97;;;3.07;;
16878;SDS011;8556;52.218;9.884;2023-02-01T07:41:46;14.03;;;4.30;;
16878;SDS011;8556;52.218;9.884;2023-02-01T07:44:13;14.87;;;3.60;;
16878;SDS011;8556;52.218;9.884;2023-02-01T07:46:40;11.27;;;3.17;;
16878;SDS011;8556;52.218;9.884;2023-02-01T07:49:09;11.30;;;3.37;;
16878;SDS011;8556;52.218;9.884;2023-02-01T07:51:38;9.80;;;2.90;;
16878;SDS011;8556;52.218;9.884;2023-02-01T07:54:05;8.80;;;3.00;;
16878;SDS011;8556;52.218;9.884;2023-02-01T07:56:32;11.83;;;2.90;;
16878;SDS011;8556;52.218;9.884;2023-02-01T07:58:59;20.13;;;4.70;;
16878;SDS011;8556;52.218;9.884;2023-02-01T08:01:27;11.87;;;3.30;;
16878;SDS011;8556;52.218;9.884;2023-02-01T08:03:56;13.80;;;3.20;;
16878;SDS011;8556;52.218;9.884;2023-02-01T08:06:25;11.20;;;3.07;;
16878;SDS011;8556;52.218;9.884;2023-02-01T08:08:54;13.13;;;3.30;;
16878;SDS011;8556;52.218;9.884;2023-02-01T08:11:21;11.43;;;2.90;;
16878;SDS011;8556;52.218;9.884;2023-02-01T08:13:49;13.63;;;2.90;;
16878;SDS011;8556;52.218;9.884;2023-02-01T08:16:17;8.57;;;2.70;;
16878;SDS011;8556;52.218;9.884;2023-02-01T08:18:45;10.63;;;3.37;;
16878;SDS011;8556;52.218;9.884;2023-02-01T08:21:13;11.60;;;3.47;;
16878;SDS011;8556;52.218;9.884;2023-02-01T08:23:43;10.90;;;3.03;;
16878;SDS011;8556;52.218;9.884;2023-02-01T08:26:11;12.80;;;3.27;;
16878;SDS011;8556;52.218;9.884;2023-02-01T08:28:40;16.87;;;3.87;;
16878;SDS011;8556;52.218;9.884;2023-02-01T08:31:08;13.47;;;3.30;;
16878;SDS011;8556;52.218;9.884;2023-02-01T08:33:36;20.37;;;4.03;;
16878;SDS011;8556;52.218;9.884;2023-02-01T08:36:04;13.17;;;3.20;;
16878;SDS011;8556;52.218;9.884;2023-02-01T08:38:31;13.27;;;3.70;;
16878;SDS011;8556;52.218;9.884;2023-02-01T08:41:05;12.03;;;2.93;;
16878;SDS011;8556;52.218;9.884;2023-02-01T08:43:33;18.67;;;3.10;;
16878;SDS011;8556;52.218;9.884;2023-02-01T08:45:59;14.60;;;3.10;;
16878;SDS011;8556;52.218;9.884;2023-02-01T08:48:27;11.00;;;2.50;;
16878;SDS011;8556;52.218;9.884;2023-02-01T08:50:53;13.90;;;2.80;;
16878;SDS011;8556;52.218;9.884;2023-02-01T08:53:20;9.47;;;2.60;;
16878;SDS011;8556;52.218;9.884;2023-02-01T08:55:47;15.40;;;2.87;;
16878;SDS011;8556;52.218;9.884;2023-02-01T08:58:16;10.83;;;2.60;;
16878;SDS011;8556;52.218;9.884;2023-02-01T09:01:02;14.10;;;2.60;;
16878;SDS011;8556;52.218;9.884;2023-02-01T09:03:30;8.40;;;2.80;;
16878;SDS011;8556;52.218;9.884;2023-02-01T09:05:59;8.63;;;2.67;;
16878;SDS011;8556;52.218;9.884;2023-02-01T09:08:26;16.63;;;3.20;;
16878;SDS011;8556;52.218;9.884;2023-02-01T09:10:53;11.17;;;2.33;;
16878;SDS011;8556;52.218;9.884;2023-02-01T09:13:25;10.03;;;2.80;;
16878;SDS011;8556;52.218;9.884;2023-02-01T09:15:52;9.87;;;2.93;;
16878;SDS011;8556;52.218;9.884;2023-02-01T09:18:19;13.20;;;2.67;;
16878;SDS011;8556;52.218;9.884;2023-02-01T09:20:46;9.07;;;2.63;;
16878;SDS011;8556;52.218;9.884;2023-02-01T09:23:12;10.13;;;2.23;;
16878;SDS011;8556;52.218;9.884;2023-02-01T09:25:39;10.33;;;2.50;;
16878;SDS011;8556;52.218;9.884;2023-02-01T09:28:06;7.07;;;1.97;;
16878;SDS011;8556;52.218;9.884;2023-02-01T09:30:35;11.27;;;2.57;;
16878;SDS011;8556;52.218;9.884;2023-02-01T09:33:03;9.67;;;2.47;;
16878;SDS011;8556;52.218;9.884;2023-02-01T09:35:30;15.57;;;2.77;;
16878;SDS011;8556;52.218;9.884;2023-02-01T09:37:57;13.70;;;4.17;;
16878;SDS011;8556;52.218;9.884;2023-02-01T09:40:23;8.23;;;2.90;;
16878;SDS011;8556;52.218;9.884;2023-02-01T09:42:58;10.63;;;2.77;;
16878;SDS011;8556;52.218;9.884;2023-02-01T09:45:38;10.50;;;2.80;;
16878;SDS011;8556;52.218;9.884;2023-02-01T09:48:11;10.23;;;2.97;;
16878;SDS011;8556;52.218;9.884;2023-02-01T09:50:42;13.40;;;3.70;;
16878;SDS011;8556;52.218;9.884;2023-02-01T09:53:15;9.97;;;3.07;;
16878;SDS011;8556;52.218;9.884;2023-02-01T09:55:47;10.70;;;2.63;;
16878;SDS011;8556;52.218;9.884;2023-02-01T09:58:16;14.47;;;3.07;;
16878;SDS011;8556;52.218;9.884;2023-02-01T10:00:52;15.10;;;3.10;;
16878;SDS011;8556;52.218;9.884;2023-02-01T10:03:20;11.80;;;3.77;;
16878;SDS011;8556;52.218;9.884;2023-02-01T10:09:01;12.07;;;3.00;;
16878;SDS011;8556;52.218;9.884;2023-02-01T10:11:39;11.53;;;2.97;;
16878;SDS011;8556;52.218;9.884;2023-02-01T10:14:20;8.93;;;3.03;;
16878;SDS011;8556;52.218;9.884;2023-02-01T10:17:08;13.63;;;3.03;;
16878;SDS011;8556;52.218;9.884;2023-02-01T10:19:46;13.73;;;3.07;;
16878;SDS011;8556;52.218;9.884;2023-02-01T10:22:26;10.33;;;3.03;;
16878;SDS011;8556;52.218;9.884;2023-02-01T10:24:59;8.87;;;2.30;;
16878;SDS011;8556;52.218;9.884;2023-02-01T10:27:33;10.03;;;2.90;;
16878;SDS011;8556;52.218;9.884;2023-02-01T10:30:04;9.27;;;3.20;;
16878;SDS011;8556;52.218;9.884;2023-02-01T10:32:41;11.80;;;3.83;;
16878;SDS011;8556;52.218;9.884;2023-02-01T10:35:11;18.87;;;4.10;;
16878;SDS011;8556;52.218;9.884;2023-02-01T10:37:48;10.13;;;2.80;;
16878;SDS011;8556;52.218;9.884;2023-02-01T10:40:16;11.27;;;2.80;;
16878;SDS011;8556;52.218;9.884;2023-02-01T10:42:46;13.40;;;3.70;;
16878;SDS011;8556;52.218;9.884;2023-02-01T10:45:16;14.67;;;3.27;;
16878;SDS011;8556;52.218;9.884;2023-02-01T10:47:47;14.53;;;3.03;;
16878;SDS011;8556;52.218;9.884;2023-02-01T10:50:17;13.07;;;3.00;;
16878;SDS011;8556;52.218;9.884;2023-02-01T10:52:52;10.97;;;2.70;;
16878;SDS011;8556;52.218;9.884;2023-02-01T10:55:31;11.63;;;2.63;;
16878;SDS011;8556;52.218;9.884;2023-02-01T10:58:01;8.43;;;2.17;;
16878;SDS011;8556;52.218;9.884;2023-02-01T11:00:34;11.63;;;2.20;;
16878;SDS011;8556;52.218;9.884;2023-02-01T11:03:25;11.67;;;2.87;;
16878;SDS011;8556;52.218;9.884;2023-02-01T11:05:58;11.53;;;2.50;;
16878;SDS011;8556;52.218;9.884;2023-02-01T11:08:25;13.77;;;2.80;;
16878;SDS011;8556;52.218;9.884;2023-02-01T11:10:56;6.77;;;2.50;;
16878;SDS011;8556;52.218;9.884;2023-02-01T11:13:27;15.47;;;3.00;;
16878;SDS011;8556;52.218;9.884;2023-02-01T11:15:57;15.90;;;3.07;;
16878;SDS011;8556;52.218;9.884;2023-02-01T11:18:27;11.83;;;2.57;;
16878;SDS011;8556;52.218;9.884;2023-02-01T11:20:55;16.67;;;3.93;;
16878;SDS011;8556;52.218;9.884;2023-02-01T11:23:23;15.33;;;3.03;;
16878;SDS011;8556;52.218;9.884;2023-02-01T11:25:53;10.13;;;2.23;;
16878;SDS011;8556;52.218;9.884;2023-02-01T11:28:23;7.27;;;4.10;;
16878;SDS011;8556;52.218;9.884;2023-02-01T11:30:53;15.47;;;2.97;;
16878;SDS011;8556;52.218;9.884;2023-02-01T11:33:24;7.13;;;2.10;;
16878;SDS011;8556;52.218;9.884;2023-02-01T11:35:55;15.23;;;2.90;;
16878;SDS011;8556;52.218;9.884;2023-02-01T11:38:26;11.70;;;2.60;;
16878;SDS011;8556;52.218;9.884;2023-02-01T11:40:55;11.53;;;3.07;;
16878;SDS011;8556;52.218;9.884;2023-02-01T11:43:37;16.63;;;2.97;;
16878;SDS011;8556;52.218;9.884;2023-02-01T11:46:15;10.93;;;2.83;;
16878;SDS011;8556;52.218;9.884;2023-02-01T11:48:51;12.47;;;2.80;;
16878;SDS011;8556;52.218;9.884;2023-02-01T11:51:21;12.47;;;3.47;;
16878;SDS011;8556;52.218;9.884;2023-02-01T11:54:05;15.67;;;3.17;;
16878;SDS011;8556;52.218;9.884;2023-02-01T11:56:54;15.83;;;2.97;;
16878;SDS011;8556;52.218;9.884;2023-02-01T11:59:49;9.03;;;2.53;;
16878;SDS011;8556;52.218;9.884;2023-02-01T12:02:34;8.57;;;2.30;;
16878;SDS011;8556;52.218;9.884;2023-02-01T12:05:26;11.77;;;2.97;;
16878;SDS011;8556;52.218;9.884;2023-02-01T12:08:01;14.13;;;2.90;;
16878;SDS011;8556;52.218;9.884;2023-02-01T12:10:37;6.20;;;2.63;;
16878;SDS011;8556;52.218;9.884;2023-02-01T12:13:14;15.87;;;3.33;;
16878;SDS011;8556;52.218;9.884;2023-02-01T12:15:53;10.30;;;2.77;;
16878;SDS011;8556;52.218;9.884;2023-02-01T12:21:30;12.70;;;2.90;;
16878;SDS011;8556;52.218;9.884;2023-02-01T12:27:16;16.50;;;3.10;;
16878;SDS011;8556;52.218;9.884;2023-02-01T12:30:13;15.67;;;3.40;;
16878;SDS011;8556;52.218;9.884;2023-02-01T12:32:59;11.03;;;3.23;;
16878;SDS011;8556;52.218;9.884;2023-02-01T12:35:38;9.27;;;3.77;;
16878;SDS011;8556;52.218;9.884;2023-02-01T12:38:18;17.87;;;3.63;;
16878;SDS011;8556;52.218;9.884;2023-02-01T12:40:56;12.80;;;3.10;;
16878;SDS011;8556;52.218;9.884;2023-02-01T12:43:36;17.33;;;3.73;;
16878;SDS011;8556;52.218;9.884;2023-02-01T12:46:07;10.33;;;3.00;;
16878;SDS011;8556;52.218;9.884;2023-02-01T12:48:40;12.80;;;3.07;;
16878;SDS011;8556;52.218;9.884;2023-02-01T12:51:13;7.47;;;2.50;;
16878;SDS011;8556;52.218;9.884;2023-02-01T12:53:46;11.23;;;2.63;;
16878;SDS011;8556;52.218;9.884;2023-02-01T12:56:20;16.33;;;4.63;;
16878;SDS011;8556;52.218;9.884;2023-02-01T12:58:52;11.23;;;3.30;;
16878;SDS011;8556;52.218;9.884;2023-02-01T13:01:22;9.67;;;2.63;;
16878;SDS011;8556;52.218;9.884;2023-02-01T13:03:56;11.53;;;3.33;;
16878;SDS011;8556;52.218;9.884;2023-02-01T13:06:32;12.43;;;3.30;;
16878;SDS011;8556;52.218;9.884;2023-02-01T13:09:06;16.00;;;3.60;;
16878;SDS011;8556;52.218;9.884;2023-02-01T13:11:42;11.37;;;3.53;;
16878;SDS011;8556;52.218;9.884;2023-02-01T13:14:18;6.93;;;2.50;;
16878;SDS011;8556;52.218;9.884;2023-02-01T13:16:56;8.53;;;3.47;;
16878;SDS011;8556;52.218;9.884;2023-02-01T13:19:27;7.80;;;2.90;;
16878;SDS011;8556;52.218;9.884;2023-02-01T13:22:01;10.77;;;3.10;;
16878;SDS011;8556;52.218;9.884;2023-02-01T13:24:36;7.97;;;3.00;;
16878;SDS011;8556;52.218;9.884;2023-02-01T13:27:09;9.33;;;3.17;;
16878;SDS011;8556;52.218;9.884;2023-02-01T13:29:37;5.40;;;2.20;;
16878;SDS011;8556;52.218;9.884;2023-02-01T13:32:28;7.77;;;2.57;;
16878;SDS011;8556;52.218;9.884;2023-02-01T13:38:09;7.10;;;2.20;;
16878;SDS011;8556;52.218;9.884;2023-02-01T13:40:54;6.30;;;2.23;;
16878;SDS011;8556;52.218;9.884;2023-02-01T13:43:38;7.73;;;2.23;;
16878;SDS011;8556;52.218;9.884;2023-02-01T13:46:07;8.63;;;2.83;;
16878;SDS011;8556;52.218;9.884;2023-02-01T13:48:38;11.67;;;2.17;;
16878;SDS011;8556;52.218;9.884;2023-02-01T13:51:11;6.20;;;2.27;;
16878;SDS011;8556;52.218;9.884;2023-02-01T13:53:43;2.80;;;1.97;;
16878;SDS011;8556;52.218;9.884;2023-02-01T13:56:15;4.73;;;2.20;;
16878;SDS011;8556;52.218;9.884;2023-02-01T13:58:44;2.33;;;1.30;;
16878;SDS011;8556;52.218;9.884;2023-02-01T14:07:17;2.40;;;0.70;;
16878;SDS011;8556;52.218;9.884;2023-02-01T14:09:45;0.93;;;0.90;;
16878;SDS011;8556;52.218;9.884;2023-02-01T14:15:17;1.97;;;0.83;;
16878;SDS011;8556;52.218;9.884;2023-02-01T14:17:54;1.37;;;0.70;;
16878;SDS011;8556;52.218;9.884;2023-02-01T14:26:09;1.33;;;0.60;;
16878;SDS011;8556;52.218;9.884;2023-02-01T14:28:44;0.67;;;0.40;;
16878;SDS011;8556;52.218;9.884;2023-02-01T14:34:21;0.37;;;0.33;;
16878;SDS011;8556;52.218;9.884;2023-02-01T14:36:57;2.27;;;0.50;;
16878;SDS011;8556;52.218;9.884;2023-02-01T14:39:28;0.30;;;0.20;;
16878;SDS011;8556;52.218;9.884;2023-02-01T14:42:01;2.13;;;0.40;;
16878;SDS011;8556;52.218;9.884;2023-02-01T14:44:37;1.53;;;0.40;;
16878;SDS011;8556;52.218;9.884;2023-02-01T14:47:06;1.47;;;0.63;;
16878;SDS011;8556;52.218;9.884;2023-02-01T14:49:49;1.90;;;1.60;;
16878;SDS011;8556;52.218;9.884;2023-02-01T14:52:22;3.40;;;1.03;;
16878;SDS011;8556;52.218;9.884;2023-02-01T14:55:04;2.03;;;1.17;;
16878;SDS011;8556;52.218;9.884;2023-02-01T14:57:36;2.90;;;1.00;;
16878;SDS011;8556;52.218;9.884;2023-02-01T15:00:14;1.20;;;1.00;;
16878;SDS011;8556;52.218;9.884;2023-02-01T15:02:45;3.53;;;0.97;;
16878;SDS011;8556;52.218;9.884;2023-02-01T15:08:03;3.50;;;1.20;;
16878;SDS011;8556;52.218;9.884;2023-02-01T15:10:40;5.60;;;1.73;;
16878;SDS011;8556;52.218;9.884;2023-02-01T15:13:18;5.60;;;1.50;;
16878;SDS011;8556;52.218;9.884;2023-02-01T15:16:01;2.90;;;1.40;;
16878;SDS011;8556;52.218;9.884;2023-02-01T15:18:29;1.93;;;1.30;;
16878;SDS011;8556;52.218;9.884;2023-02-01T15:20:57;4.30;;;1.33;;
16878;SDS011;8556;52.218;9.884;2023-02-01T15:23:26;4.40;;;1.00;;
16878;SDS011;8556;52.218;9.884;2023-02-01T15:25:53;2.50;;;1.40;;
16878;SDS011;8556;52.218;9.884;2023-02-01T15:28:21;4.03;;;1.57;;
16878;SDS011;8556;52.218;9.884;2023-02-01T15:30:52;4.03;;;1.50;;
16878;SDS011;8556;52.218;9.884;2023-02-01T15:33:22;4.97;;;1.90;;
16878;SDS011;8556;52.218;9.884;2023-02-01T15:35:50;5.87;;;2.00;;
16878;SDS011;8556;52.218;9.884;2023-02-01T15:38:35;5.10;;;1.60;;
16878;SDS011;8556;52.218;9.884;2023-02-01T15:41:08;5.90;;;2.37;;
16878;SDS011;8556;52.218;9.884;2023-02-01T15:43:39;4.60;;;2.30;;
16878;SDS011;8556;52.218;9.884;2023-02-01T15:46:08;5.80;;;2.50;;
16878;SDS011;8556;52.218;9.884;2023-02-01T15:48:40;6.23;;;2.37;;
16878;SDS011;8556;52.218;9.884;2023-02-01T15:51:14;5.70;;;1.77;;